This is the latest recevied weather packets stored in our database for station/object K7SKM. If no packets are shown the sender has not sent any weather packets the latest 10 day(s).
| Time | Temp. | Humidity | Pressure | Rain* | Wind** | Luminosity | Snow |
|---|---|---|---|---|---|---|---|
| 1787679451 | 26.11° C | 54% | 1019.9 hPa | 0 mm | - | 236 W/m² | - |
| 1787679147 | 26.67° C | 53% | 1019.8 hPa | 0 mm | - | 229 W/m² | - |
| 1787678847 | 26.11° C | 55% | 1019.7 hPa | 0 mm | - | 227 W/m² | - |
| 1787678547 | 25° C | 57% | 1019.8 hPa | 0 mm | - | 229 W/m² | - |
| 1787678246 | 23.89° C | 60% | 1019.8 hPa | 0 mm | - | 229 W/m² | - |
| 1787677942 | 23.89° C | 60% | 1019.7 hPa | 0 mm | - | 218 W/m² | - |
| 1787677636 | 24.44° C | 58% | 1019.6 hPa | 0 mm | - | 211 W/m² | - |
| 1787677330 | 23.89° C | 58% | 1019.7 hPa | 0 mm | - | 208 W/m² | - |
| 1787677029 | 23.89° C | 59% | 1019.6 hPa | 0 mm | - | 200 W/m² | - |
| 1787676725 | 23.89° C | 60% | 1019.7 hPa | 0 mm | - | 196 W/m² | - |
| 1787676420 | 23.33° C | 62% | 1019.8 hPa | 0 mm | - | 189 W/m² | - |
| 1787676117 | 22.78° C | 63% | 1019.8 hPa | 0 mm | - | 183 W/m² | - |
| 1787675812 | 21.67° C | 64% | 1019.7 hPa | 0 mm | - | 176 W/m² | - |
| 1787675508 | 21.11° C | 66% | 1019.8 hPa | 0 mm | - | 173 W/m² | - |
| 1787675206 | 20.56° C | 68% | 1019.8 hPa | 0 mm | - | 167 W/m² | - |
| 1787674901 | 20.56° C | 68% | 1019.8 hPa | 0 mm | - | 153 W/m² | - |
| 1787674596 | 20° C | 70% | 1019.9 hPa | 0 mm | - | 149 W/m² | - |
| 1787674292 | 19.44° C | 71% | 1019.9 hPa | 0 mm | - | 146 W/m² | - |
| 1787673987 | 19.44° C | 72% | 1019.6 hPa | 0 mm | - | 135 W/m² | - |
| 1787673681 | 18.89° C | 74% | 1019.9 hPa | 0 mm | - | 128 W/m² | - |
| 1787673376 | 18.89° C | 75% | 1019.7 hPa | 0 mm | - | 127 W/m² | - |
| 1787673076 | 17.78° C | 76% | 1019.8 hPa | 0 mm | - | 120 W/m² | - |
| 1787672770 | 17.22° C | 78% | 1019.6 hPa | 0 mm | - | 109 W/m² | - |
| 1787672466 | 16.67° C | 79% | 1019.8 hPa | 0 mm | - | 77 W/m² | - |
| 1787672165 | 16.67° C | 80% | 1019.7 hPa | 0 mm | - | 61 W/m² | - |
* Rain latest hour (hover to see other rain measurements)
** Current wind speed in m/s (hover to see current wind gust speed)